Time;durP1;ratioP1;P1;durP2;ratioP2;P2;SDS_P1;SDS_P2;PMS_P1;PMS_P2;Temp;Humidity;BMP_temperature;BMP_pressure;BME280_temperature;BME280_humidity;BME280_pressure;Samples;Min_cycle;Max_cycle;Signal;HPM_P1;HPM_P2
2024/01/23 00:02:08;;;;;;;25.23;5.25;;;;;;;8.11;100.00;101453.31;5096419;27;20027;-73
2024/01/23 00:04:34;;;;;;;28.67;5.90;;;;;;;8.13;100.00;101470.91;5091874;27;20047;-73
2024/01/23 00:06:59;;;;;;;30.60;5.57;;;;;;;8.20;100.00;101469.72;5066996;27;20029;-73
2024/01/23 00:09:26;;;;;;;26.33;5.60;;;;;;;8.16;100.00;101475.22;5096968;27;20043;-73
2024/01/23 00:11:51;;;;;;;46.15;6.25;;;;;;;8.04;100.00;101479.28;5102839;27;20032;-73
2024/01/23 00:14:17;;;;;;;32.00;6.40;;;;;;;8.10;100.00;101483.47;5100044;27;20027;-73
2024/01/23 00:16:42;;;;;;;24.67;6.00;;;;;;;8.05;100.00;101483.66;5094343;27;20780;-73
2024/01/23 00:19:08;;;;;;;41.25;6.93;;;;;;;8.13;100.00;101488.63;5093664;27;20816;-73
2024/01/23 00:21:33;;;;;;;29.58;5.45;;;;;;;8.05;100.00;101492.50;5090892;27;20791;-73
2024/01/23 00:23:59;;;;;;;29.05;6.53;;;;;;;8.07;100.00;101505.69;5094410;27;20039;-72
2024/01/23 00:26:24;;;;;;;31.63;6.32;;;;;;;8.04;100.00;101508.50;5089029;27;21024;-73
2024/01/23 00:28:50;;;;;;;36.85;6.40;;;;;;;8.07;100.00;101523.44;5060288;27;20032;-73
2024/01/23 00:31:15;;;;;;;33.85;7.00;;;;;;;8.08;100.00;101512.72;5112816;27;20080;-74
2024/01/23 00:33:40;;;;;;;30.10;5.95;;;;;;;8.11;100.00;101511.75;5091222;27;20374;-72
2024/01/23 00:36:07;;;;;;;41.08;6.05;;;;;;;8.07;100.00;101513.66;5074460;27;20049;-72
2024/01/23 00:38:32;;;;;;;33.50;5.10;;;;;;;8.05;100.00;101519.06;5094557;27;21365;-73
2024/01/23 00:40:58;;;;;;;35.28;6.65;;;;;;;8.02;100.00;101524.47;5078325;27;20055;-72
2024/01/23 00:43:23;;;;;;;34.13;6.10;;;;;;;8.08;100.00;101538.44;5067708;28;20047;-72
2024/01/23 00:45:50;;;;;;;39.92;6.53;;;;;;;8.02;100.00;101535.09;5092891;27;20039;-72
2024/01/23 00:48:15;;;;;;;43.85;6.88;;;;;;;8.03;100.00;101531.56;5094797;27;20047;-73
2024/01/23 00:50:41;;;;;;;34.08;5.63;;;;;;;8.09;100.00;101541.03;5104113;27;20032;-72
2024/01/23 00:53:06;;;;;;;30.98;5.75;;;;;;;8.00;100.00;101547.59;5093663;27;20112;-72
2024/01/23 00:55:32;;;;;;;38.85;7.03;;;;;;;8.04;100.00;101553.66;5096956;27;20047;-73
2024/01/23 00:57:57;;;;;;;36.28;5.88;;;;;;;8.07;100.00;101555.31;5094738;27;20040;-73
2024/01/23 01:00:23;;;;;;;37.20;5.55;;;;;;;8.04;100.00;101565.13;5072390;27;20036;-72
2024/01/23 01:02:48;;;;;;;39.45;6.68;;;;;;;7.97;100.00;101576.06;5101928;27;20032;-73
2024/01/23 01:05:14;;;;;;;32.60;5.68;;;;;;;7.96;100.00;101575.19;5094451;27;20404;-72
2024/01/23 01:07:39;;;;;;;39.70;6.55;;;;;;;8.00;100.00;101579.47;5102554;27;20039;-72
2024/01/23 01:10:05;;;;;;;28.70;6.63;;;;;;;7.98;100.00;101583.09;5083398;27;20044;-73
2024/01/23 01:12:33;;;;;;;26.65;5.97;;;;;;;7.84;100.00;101583.69;5079692;27;20027;-73
2024/01/23 01:15:00;;;;;;;36.72;6.18;;;;;;;7.82;100.00;101568.72;5100405;27;20059;-72
2024/01/23 01:17:26;;;;;;;43.17;6.28;;;;;;;7.70;100.00;101591.31;5092073;27;20105;-72
2024/01/23 01:19:52;;;;;;;40.75;6.20;;;;;;;7.67;100.00;101589.63;5090058;27;20066;-72
2024/01/23 01:22:18;;;;;;;35.55;7.10;;;;;;;7.61;100.00;101595.19;5101146;27;20060;-72
2024/01/23 01:24:43;;;;;;;22.08;5.82;;;;;;;7.56;100.00;101601.59;5100983;27;20106;-72
2024/01/23 01:27:09;;;;;;;35.42;6.07;;;;;;;7.65;100.00;101603.91;5098759;27;20032;-73
2024/01/23 01:29:34;;;;;;;26.80;5.72;;;;;;;7.65;100.00;101602.13;5106923;27;20036;-72
2024/01/23 01:32:00;;;;;;;39.75;6.15;;;;;;;7.61;100.00;101611.13;5102604;27;20152;-73
2024/01/23 01:34:26;;;;;;;35.50;6.43;;;;;;;7.66;100.00;101617.09;5081228;28;20047;-72
2024/01/23 01:36:52;;;;;;;30.65;6.35;;;;;;;7.60;100.00;101613.84;5087913;27;20098;-72
2024/01/23 01:39:17;;;;;;;27.08;5.82;;;;;;;7.53;100.00;101621.19;5084952;27;20064;-72
2024/01/23 01:41:43;;;;;;;36.38;6.10;;;;;;;7.56;100.00;101629.00;5058406;28;20036;-72
2024/01/23 01:44:08;;;;;;;33.58;6.25;;;;;;;7.52;100.00;101627.38;5089889;27;20031;-72
2024/01/23 01:46:34;;;;;;;31.40;6.32;;;;;;;7.45;100.00;101629.41;5080602;27;20044;-73
2024/01/23 01:49:00;;;;;;;43.67;6.55;;;;;;;7.38;100.00;101627.94;5094986;27;20094;-72
2024/01/23 01:51:28;;;;;;;39.03;7.20;;;;;;;7.35;100.00;101632.47;5091579;27;20139;-72
2024/01/23 01:53:54;;;;;;;43.42;6.90;;;;;;;7.27;100.00;101633.59;5075599;27;20116;-72
2024/01/23 01:56:23;;;;;;;35.03;6.30;;;;;;;7.25;100.00;101643.41;5108186;27;20117;-73
2024/01/23 01:58:50;;;;;;;29.70;6.25;;;;;;;7.16;100.00;101648.19;5099866;27;20035;-73
2024/01/23 02:01:17;;;;;;;34.17;7.00;;;;;;;7.11;100.00;101652.81;5096971;27;20032;-73
2024/01/23 02:03:42;;;;;;;32.75;7.55;;;;;;;7.13;100.00;101658.91;5079301;27;20031;-73
2024/01/23 02:06:09;;;;;;;41.85;6.18;;;;;;;7.12;100.00;101659.81;5096159;27;20175;-72
2024/01/23 02:08:37;;;;;;;30.65;6.65;;;;;;;7.08;100.00;101676.75;5096795;27;20182;-73
2024/01/23 02:11:03;;;;;;;41.83;6.18;;;;;;;7.00;100.00;101675.25;5098310;27;20024;-72
2024/01/23 02:13:28;;;;;;;42.13;7.63;;;;;;;7.01;100.00;101695.56;5094406;27;20125;-72
2024/01/23 02:15:54;;;;;;;38.95;6.93;;;;;;;6.92;100.00;101687.03;5097404;27;20040;-73
2024/01/23 02:18:23;;;;;;;29.90;5.88;;;;;;;6.87;100.00;101697.81;5096307;27;20040;-73
2024/01/23 02:20:48;;;;;;;35.72;6.03;;;;;;;6.88;100.00;101696.91;5096487;27;20082;-72
2024/01/23 02:23:14;;;;;;;36.10;6.45;;;;;;;6.88;100.00;101710.16;5095686;27;20032;-72
2024/01/23 02:25:41;;;;;;;33.72;6.38;;;;;;;6.84;100.00;101708.53;5099387;27;20126;-73
2024/01/23 02:28:07;;;;;;;36.53;7.15;;;;;;;6.79;100.00;101715.78;5074866;27;20134;-72
2024/01/23 02:30:34;;;;;;;36.70;7.07;;;;;;;6.80;100.00;101729.88;5099134;27;20047;-72
2024/01/23 02:33:03;;;;;;;40.53;6.80;;;;;;;6.75;100.00;101730.91;5088658;27;20039;-72
2024/01/23 02:35:32;;;;;;;30.10;6.68;;;;;;;6.73;100.00;101737.19;5103542;27;20119;-72
2024/01/23 02:37:58;;;;;;;35.25;7.00;;;;;;;6.67;100.00;101734.72;5098503;27;20161;-72
2024/01/23 02:40:24;;;;;;;32.80;6.97;;;;;;;6.69;100.00;101740.84;5091543;27;20043;-72
2024/01/23 02:42:49;;;;;;;39.00;6.97;;;;;;;6.55;100.00;101735.13;5085221;27;20553;-72
2024/01/23 02:45:15;;;;;;;40.05;7.03;;;;;;;6.59;100.00;101736.78;5084866;27;20051;-72
2024/01/23 02:47:41;;;;;;;38.65;6.85;;;;;;;6.57;100.00;101736.78;5075243;27;20020;-72
2024/01/23 02:50:08;;;;;;;34.47;6.85;;;;;;;6.57;100.00;101750.03;5087371;27;20766;-72
2024/01/23 02:52:33;;;;;;;38.95;7.20;;;;;;;6.48;100.00;101743.28;5080358;27;20066;-73
2024/01/23 02:54:59;;;;;;;38.15;6.10;;;;;;;6.58;100.00;101756.25;5102421;27;20055;-72
2024/01/23 02:57:25;;;;;;;40.72;7.75;;;;;;;6.57;100.00;101755.34;5067113;28;20446;-72
2024/01/23 02:59:54;;;;;;;34.05;6.97;;;;;;;6.59;100.00;101763.28;5089876;27;20138;-72
2024/01/23 03:02:23;;;;;;;36.28;7.53;;;;;;;6.58;100.00;101761.53;5071804;27;20027;-72
2024/01/23 03:04:50;;;;;;;38.05;7.65;;;;;;;6.57;100.00;101775.69;5098643;27;20043;-72
2024/01/23 03:07:16;;;;;;;42.20;7.32;;;;;;;6.62;100.00;101768.44;5084570;27;20035;-72
2024/01/23 03:09:42;;;;;;;33.22;7.40;;;;;;;6.64;100.00;101762.19;5076072;27;22061;-72
2024/01/23 03:12:21;;;;;;;46.85;6.85;;;;;;;6.70;100.00;101777.03;5094123;27;20854;-72
2024/01/23 03:14:48;;;;;;;39.78;7.18;;;;;;;6.81;100.00;101787.28;5095514;27;20024;-72
2024/01/23 03:17:14;;;;;;;34.70;5.68;;;;;;;6.88;100.00;101795.00;5086571;27;20039;-72
2024/01/23 03:19:40;;;;;;;39.45;6.75;;;;;;;6.96;100.00;101797.38;5096243;27;20040;-72
2024/01/23 03:22:07;;;;;;;39.88;7.10;;;;;;;6.89;100.00;101791.44;5093857;27;20485;-72
2024/01/23 03:24:33;;;;;;;36.45;6.75;;;;;;;6.87;100.00;101782.63;5059393;27;20032;-72
2024/01/23 03:26:59;;;;;;;27.65;6.10;;;;;;;6.85;100.00;101794.22;5095362;27;20047;-72
2024/01/23 03:29:25;;;;;;;38.70;7.03;;;;;;;6.86;100.00;101798.59;5053079;28;20035;-72
2024/01/23 03:31:52;;;;;;;37.75;7.63;;;;;;;6.86;100.00;101802.13;5071480;27;20028;-73
2024/01/23 03:34:21;;;;;;;41.80;6.80;;;;;;;6.90;100.00;101802.91;5088200;27;20082;-72
2024/01/23 03:36:46;;;;;;;31.85;6.43;;;;;;;6.98;100.00;101809.69;5082046;27;20103;-72
2024/01/23 03:39:12;;;;;;;40.85;7.10;;;;;;;6.87;100.00;101802.97;5101435;27;20913;-72
2024/01/23 03:41:38;;;;;;;30.27;6.82;;;;;;;6.87;100.00;101819.75;5092465;27;21037;-72
2024/01/23 03:44:07;;;;;;;36.97;7.03;;;;;;;6.75;100.00;101822.81;5089339;27;20031;-73
2024/01/23 03:46:33;;;;;;;44.58;6.97;;;;;;;6.66;100.00;101839.00;5084660;27;20116;-72
2024/01/23 03:48:59;;;;;;;39.50;7.50;;;;;;;6.68;100.00;101848.66;5089881;27;20026;-72
2024/01/23 03:51:25;;;;;;;31.25;5.78;;;;;;;6.63;100.00;101845.28;5081850;27;20047;-74
2024/01/23 03:53:50;;;;;;;31.27;6.00;;;;;;;6.59;100.00;101848.06;5089309;27;20039;-74
2024/01/23 03:56:16;;;;;;;33.28;6.50;;;;;;;6.53;100.00;101854.41;5082876;27;20032;-74
2024/01/23 03:58:42;;;;;;;43.40;7.63;;;;;;;6.52;100.00;101862.41;5092014;27;20093;-74
2024/01/23 04:01:07;;;;;;;30.45;6.25;;;;;;;6.48;100.00;101872.25;5090666;27;20097;-73
2024/01/23 04:03:33;;;;;;;34.33;7.10;;;;;;;6.49;100.00;101880.13;5085050;27;20034;-73
2024/01/23 04:05:59;;;;;;;34.70;6.97;;;;;;;6.45;100.00;101893.50;5091687;27;20024;-74
2024/01/23 04:08:24;;;;;;;43.10;7.75;;;;;;;6.48;100.00;101889.00;5090503;27;20136;-73
2024/01/23 04:10:50;;;;;;;30.58;7.38;;;;;;;6.44;100.00;101895.31;5096238;27;20064;-73
2024/01/23 04:13:16;;;;;;;36.47;7.00;;;;;;;6.43;100.00;101901.53;5087135;27;20037;-73
2024/01/23 04:15:41;;;;;;;47.20;8.95;;;;;;;6.40;100.00;101906.03;5088985;27;20046;-73
2024/01/23 04:18:07;;;;;;;41.38;6.32;;;;;;;6.42;100.00;101907.69;5091588;27;20040;-73
2024/01/23 04:20:33;;;;;;;37.72;6.72;;;;;;;6.38;100.00;101907.88;5093176;27;20043;-73
2024/01/23 04:22:59;;;;;;;41.55;6.22;;;;;;;6.47;100.00;101904.91;5091742;27;20043;-73
2024/01/23 04:25:24;;;;;;;33.15;6.75;;;;;;;6.54;100.00;101917.09;5094436;27;20161;-73
2024/01/23 04:27:50;;;;;;;36.22;6.30;;;;;;;6.54;100.00;101919.75;5093137;27;20798;-73
2024/01/23 04:30:16;;;;;;;35.47;7.47;;;;;;;6.50;100.00;101936.63;5091882;27;20541;-73
2024/01/23 04:32:41;;;;;;;50.28;7.28;;;;;;;6.44;100.00;101932.41;5088082;27;20037;-73
2024/01/23 04:35:07;;;;;;;29.17;6.57;;;;;;;6.49;100.00;101941.06;5092584;27;20046;-73
2024/01/23 04:37:33;;;;;;;36.03;6.50;;;;;;;6.43;100.00;101951.84;5106478;27;20116;-73
2024/01/23 04:39:59;;;;;;;36.95;7.03;;;;;;;6.42;100.00;101950.09;5090028;27;20028;-73
2024/01/23 04:42:25;;;;;;;33.97;6.22;;;;;;;6.40;100.00;101949.28;5087246;27;20052;-73
2024/01/23 04:44:50;;;;;;;36.47;5.43;;;;;;;6.42;100.00;101960.69;5098958;27;20036;-73
2024/01/23 04:47:16;;;;;;;38.78;6.38;;;;;;;6.35;100.00;101964.44;5077091;27;20118;-73
2024/01/23 04:49:41;;;;;;;35.08;6.25;;;;;;;6.33;100.00;101974.22;5088572;27;20033;-72
2024/01/23 04:52:07;;;;;;;36.20;7.93;;;;;;;6.33;100.00;101974.22;5090614;27;20036;-72
2024/01/23 04:54:32;;;;;;;41.00;6.22;;;;;;;6.29;100.00;101983.16;5091164;27;20114;-73
2024/01/23 04:56:58;;;;;;;26.90;5.50;;;;;;;6.29;100.00;101985.81;5095350;27;20051;-73
2024/01/23 04:59:23;;;;;;;39.05;7.10;;;;;;;6.37;100.00;101993.53;5077235;27;20044;-73
2024/01/23 05:01:49;;;;;;;40.60;6.53;;;;;;;6.40;100.00;101996.97;5094196;27;20036;-73
2024/01/23 05:04:14;;;;;;;35.58;6.68;;;;;;;6.34;100.00;102002.44;5098312;27;20028;-73
2024/01/23 05:06:39;;;;;;;36.88;6.22;;;;;;;6.38;100.00;102016.47;5097017;27;20040;-73
2024/01/23 05:09:05;;;;;;;36.63;6.72;;;;;;;6.40;100.00;102014.66;5094517;27;20043;-73
2024/01/23 05:11:31;;;;;;;45.42;7.53;;;;;;;6.39;100.00;102018.22;5058271;27;20089;-73
2024/01/23 05:13:56;;;;;;;43.95;8.18;;;;;;;6.45;100.00;102018.91;5089145;27;20035;-73
2024/01/23 05:16:22;;;;;;;26.63;6.50;;;;;;;6.55;100.00;102021.31;5095622;27;20027;-73
2024/01/23 05:18:48;;;;;;;33.47;6.28;;;;;;;6.60;100.00;102014.97;5081253;27;20059;-73
2024/01/23 05:21:14;;;;;;;41.05;7.25;;;;;;;6.53;100.00;102021.34;5096200;27;20039;-73
2024/01/23 05:23:41;;;;;;;33.97;6.53;;;;;;;6.57;100.00;102024.78;5075191;27;20528;-73
2024/01/23 05:26:07;;;;;;;40.42;6.50;;;;;;;6.57;100.00;102040.66;5086519;27;20061;-73
2024/01/23 05:28:32;;;;;;;41.58;8.20;;;;;;;6.64;100.00;102043.13;5093012;27;20064;-73
2024/01/23 05:30:58;;;;;;;59.08;7.93;;;;;;;6.60;100.00;102048.53;5089796;27;20125;-73
2024/01/23 05:33:24;;;;;;;39.50;7.60;;;;;;;6.65;100.00;102051.94;5072015;27;20039;-73
2024/01/23 05:35:49;;;;;;;43.30;6.72;;;;;;;6.72;100.00;102064.09;5088265;27;20036;-73
2024/01/23 05:38:15;;;;;;;43.30;7.53;;;;;;;6.77;100.00;102063.97;5093161;27;20036;-73
2024/01/23 05:40:40;;;;;;;39.55;6.60;;;;;;;6.72;100.00;102066.75;5091749;27;20586;-73
2024/01/23 05:43:06;;;;;;;33.78;6.47;;;;;;;6.66;100.00;102077.53;5093640;27;20525;-73
2024/01/23 05:45:32;;;;;;;29.50;5.68;;;;;;;6.71;100.00;102084.44;5085913;27;20032;-73
2024/01/23 05:47:58;;;;;;;31.00;5.70;;;;;;;6.73;100.00;102090.59;5096827;27;20397;-73
2024/01/23 05:50:24;;;;;;;42.17;7.68;;;;;;;6.72;100.00;102099.44;5088271;27;20278;-73
2024/01/23 05:52:49;;;;;;;42.08;7.13;;;;;;;6.70;100.00;102101.25;5094291;27;20035;-73
2024/01/23 05:55:15;;;;;;;36.05;6.95;;;;;;;6.70;100.00;102111.88;5093050;27;20933;-72
2024/01/23 05:57:41;;;;;;;38.13;6.57;;;;;;;6.66;100.00;102118.16;5094736;27;20967;-73
2024/01/23 06:00:09;;;;;;;35.55;6.05;;;;;;;6.69;100.00;102119.88;5059538;27;20468;-73
2024/01/23 06:02:35;;;;;;;38.10;6.65;;;;;;;6.68;100.00;102121.66;5098473;27;20036;-73
2024/01/23 06:05:00;;;;;;;29.17;6.32;;;;;;;6.57;100.00;102118.38;5090870;27;20028;-73
2024/01/23 06:07:26;;;;;;;31.92;5.55;;;;;;;6.63;100.00;102130.63;5089600;27;20029;-73
2024/01/23 06:09:52;;;;;;;32.70;6.50;;;;;;;6.64;100.00;102119.13;5086890;27;20020;-73
2024/01/23 06:12:17;;;;;;;33.40;6.18;;;;;;;6.58;100.00;102125.44;5092072;27;20039;-72
2024/01/23 06:14:43;;;;;;;32.60;5.95;;;;;;;6.57;100.00;102121.03;5088261;27;20036;-73
2024/01/23 06:17:08;;;;;;;35.75;7.20;;;;;;;6.50;100.00;102130.06;5091755;27;20032;-73
2024/01/23 06:19:35;;;;;;;41.20;6.60;;;;;;;6.42;100.00;102142.63;5090857;27;20746;-72
2024/01/23 06:22:00;;;;;;;41.70;6.88;;;;;;;6.50;100.00;102145.97;5071060;27;20154;-73
2024/01/23 06:24:26;;;;;;;54.25;7.40;;;;;;;6.44;100.00;102162.91;5091428;27;20039;-73
2024/01/23 06:26:52;;;;;;;35.50;7.13;;;;;;;6.43;100.00;102163.81;5093605;27;20367;-73
2024/01/23 06:29:17;;;;;;;57.83;8.38;;;;;;;6.41;100.00;102172.69;5095688;27;20037;-73
2024/01/23 06:31:43;;;;;;;43.85;5.90;;;;;;;6.37;100.00;102171.88;5089219;27;21812;-73
2024/01/23 06:34:09;;;;;;;40.45;6.72;;;;;;;6.38;100.00;102178.09;5091422;27;20063;-73
2024/01/23 06:36:36;;;;;;;41.15;7.78;;;;;;;6.20;100.00;102189.97;5095299;27;20033;-73
2024/01/23 06:39:03;;;;;;;41.10;7.53;;;;;;;6.23;100.00;102187.25;5096741;27;20664;-73
2024/01/23 06:41:28;;;;;;;43.45;7.43;;;;;;;6.15;100.00;102187.44;5090766;27;20032;-73
2024/01/23 06:43:54;;;;;;;43.90;5.82;;;;;;;6.08;100.00;102191.13;5089012;27;20036;-73
2024/01/23 06:46:20;;;;;;;41.42;7.72;;;;;;;6.00;100.00;102193.09;5088443;27;20036;-73
2024/01/23 06:48:45;;;;;;;36.13;7.97;;;;;;;5.92;100.00;102200.31;5095536;27;20040;-72
2024/01/23 06:51:11;;;;;;;52.72;8.93;;;;;;;5.91;100.00;102212.69;5078070;27;20603;-73
2024/01/23 06:53:36;;;;;;;31.77;7.13;;;;;;;5.90;100.00;102207.41;5095639;27;20476;-73
2024/01/23 06:56:02;;;;;;;49.38;8.25;;;;;;;5.83;100.00;102216.38;5079153;27;20027;-72
2024/01/23 06:58:28;;;;;;;46.90;9.40;;;;;;;5.79;100.00;102218.22;5089015;27;20890;-73
2024/01/23 07:00:54;;;;;;;37.15;7.57;;;;;;;5.70;100.00;102218.41;5071236;27;20039;-73
2024/01/23 07:03:19;;;;;;;48.55;9.05;;;;;;;5.66;100.00;102220.25;5096324;27;20031;-73
2024/01/23 07:05:44;;;;;;;59.78;9.88;;;;;;;5.66;100.00;102227.31;5094645;27;20044;-73
2024/01/23 07:08:10;;;;;;;51.80;7.93;;;;;;;5.66;100.00;102225.53;5093403;27;20033;-73
2024/01/23 07:10:36;;;;;;;43.35;8.68;;;;;;;5.64;100.00;102218.53;5091522;27;20036;-73
2024/01/23 07:13:02;;;;;;;38.67;7.72;;;;;;;5.64;100.00;102221.19;5072326;27;20041;-73
2024/01/23 07:15:28;;;;;;;43.05;8.50;;;;;;;5.64;100.00;102231.78;5079683;27;20141;-73
2024/01/23 07:17:55;;;;;;;36.90;8.00;;;;;;;5.56;100.00;102241.63;5082754;27;20040;-73
2024/01/23 07:20:20;;;;;;;42.22;8.80;;;;;;;5.58;100.00;102248.66;5098649;27;20069;-73
2024/01/23 07:22:46;;;;;;;47.40;8.25;;;;;;;5.57;100.00;102246.00;5092899;27;20584;-73
2024/01/23 07:25:12;;;;;;;37.45;7.50;;;;;;;5.50;100.00;102242.63;5093463;27;20121;-73
2024/01/23 07:27:37;;;;;;;42.35;7.55;;;;;;;5.56;100.00;102242.50;5097577;27;20138;-73
2024/01/23 07:30:03;;;;;;;43.20;8.30;;;;;;;5.58;100.00;102255.72;5091874;27;20153;-73
2024/01/23 07:32:29;;;;;;;32.40;6.88;;;;;;;5.52;100.00;102258.47;5092195;27;20039;-73
2024/01/23 07:34:54;;;;;;;42.08;8.00;;;;;;;5.57;100.00;102262.78;5090128;27;20028;-73
2024/01/23 07:37:21;;;;;;;53.55;8.73;;;;;;;5.54;100.00;102259.31;5090622;27;20055;-73
2024/01/23 07:39:49;;;;;;;30.00;5.85;;;;;;;5.50;100.00;102271.72;5108777;27;20044;-73
2024/01/23 07:42:14;;;;;;;37.25;7.00;;;;;;;5.55;100.00;102284.88;5088830;27;20032;-73
2024/01/23 07:44:42;;;;;;;41.88;6.85;;;;;;;5.60;100.00;102286.53;5073048;27;20031;-73
2024/01/23 07:47:08;;;;;;;47.80;8.05;;;;;;;5.55;100.00;102301.63;5089849;27;20027;-73
2024/01/23 07:49:33;;;;;;;41.58;8.05;;;;;;;5.60;100.00;102302.41;5099286;27;20095;-73
2024/01/23 07:51:59;;;;;;;47.83;8.10;;;;;;;5.60;100.00;102318.28;5077103;27;20583;-73
2024/01/23 07:54:25;;;;;;;38.38;7.57;;;;;;;5.62;100.00;102327.06;5091818;27;20599;-73
2024/01/23 07:56:51;;;;;;;36.80;8.23;;;;;;;5.62;100.00;102327.06;5090668;27;20032;-73
2024/01/23 07:59:17;;;;;;;41.38;7.55;;;;;;;5.60;100.00;102322.69;5090675;27;20044;-73
2024/01/23 08:01:43;;;;;;;43.33;6.80;;;;;;;5.67;100.00;102325.22;5093791;27;20541;-73
2024/01/23 08:04:10;;;;;;;47.78;7.50;;;;;;;5.73;100.00;102313.63;5093653;27;20032;-73
2024/01/23 08:06:36;;;;;;;39.67;6.95;;;;;;;5.76;100.00;102320.63;5091540;27;20044;-73
2024/01/23 08:09:04;;;;;;;37.13;6.63;;;;;;;5.76;100.00;102317.97;5054949;27;20637;-73
2024/01/23 08:11:31;;;;;;;37.40;6.82;;;;;;;5.77;100.00;102322.34;5078298;27;20082;-73
2024/01/23 08:13:56;;;;;;;46.78;7.25;;;;;;;5.75;100.00;102321.53;5075051;27;20661;-73
2024/01/23 08:16:22;;;;;;;43.78;7.43;;;;;;;5.84;100.00;102321.34;5077667;27;20048;-73
2024/01/23 08:18:47;;;;;;;38.05;7.68;;;;;;;5.85;100.00;102325.75;5094622;27;20044;-73
2024/01/23 08:21:13;;;;;;;36.47;7.70;;;;;;;5.81;100.00;102332.00;5086643;27;20031;-73
2024/01/23 08:23:38;;;;;;;41.75;7.55;;;;;;;5.84;100.00;102338.09;5097810;27;20333;-73
2024/01/23 08:26:04;;;;;;;34.63;7.05;;;;;;;5.92;100.00;102343.25;5063225;27;20551;-73
2024/01/23 08:28:29;;;;;;;38.28;7.47;;;;;;;5.93;100.00;102335.31;5095258;27;20046;-73
2024/01/23 08:30:56;;;;;;;49.53;8.15;;;;;;;6.01;100.00;102344.88;5088919;27;20516;-73
2024/01/23 08:33:22;;;;;;;48.85;8.13;;;;;;;6.07;100.00;102347.38;5088334;27;20155;-73
2024/01/23 08:35:48;;;;;;;33.55;7.07;;;;;;;6.12;100.00;102351.69;5072781;27;20525;-73
2024/01/23 08:38:14;;;;;;;42.83;8.10;;;;;;;6.04;100.00;102347.47;5104270;27;20043;-73
2024/01/23 08:40:41;;;;;;;47.17;8.57;;;;;;;6.15;100.00;102356.06;5100454;27;20410;-73
2024/01/23 08:43:07;;;;;;;26.45;6.78;;;;;;;6.16;100.00;102363.09;5088428;27;20173;-72
2024/01/23 08:45:33;;;;;;;33.25;6.57;;;;;;;6.10;100.00;102361.44;5073792;27;20037;-73
2024/01/23 08:47:59;;;;;;;36.47;7.18;;;;;;;6.14;100.00;102356.97;5073148;27;20060;-73
2024/01/23 08:50:25;;;;;;;49.95;7.90;;;;;;;6.15;100.00;102364.00;5091333;27;20846;-73
2024/01/23 08:52:50;;;;;;;52.00;8.27;;;;;;;6.21;100.00;102367.38;5078885;27;20527;-73
2024/01/23 08:55:16;;;;;;;35.03;7.18;;;;;;;6.19;100.00;102369.22;5076106;27;20441;-73
2024/01/23 08:57:43;;;;;;;42.50;6.95;;;;;;;6.20;100.00;102365.66;5103720;27;20036;-73
2024/01/23 09:00:11;;;;;;;39.97;7.55;;;;;;;6.18;100.00;102358.66;5082057;27;20028;-73
2024/01/23 09:02:37;;;;;;;39.00;8.38;;;;;;;6.11;100.00;102359.66;5095203;27;20144;-73
2024/01/23 09:05:03;;;;;;;36.97;7.78;;;;;;;6.23;100.00;102380.63;5102667;27;20042;-73
2024/01/23 09:07:29;;;;;;;38.97;7.13;;;;;;;6.28;100.00;102375.22;5083379;27;20537;-73
2024/01/23 09:09:54;;;;;;;40.67;7.72;;;;;;;6.29;100.00;102367.25;5092833;27;20042;-73
2024/01/23 09:12:21;;;;;;;44.75;7.55;;;;;;;6.21;100.00;102375.34;5079767;27;20513;-73
2024/01/23 09:14:47;;;;;;;34.83;6.45;;;;;;;6.39;100.00;102374.09;5093888;27;20148;-73
2024/01/23 09:17:12;;;;;;;36.65;6.97;;;;;;;6.33;100.00;102379.53;5087146;27;20032;-73
2024/01/23 09:19:38;;;;;;;38.40;7.03;;;;;;;6.33;100.00;102384.81;5086444;27;20048;-72
2024/01/23 09:22:06;;;;;;;41.25;6.80;;;;;;;6.42;100.00;102387.25;5086601;27;20713;-73
2024/01/23 09:24:32;;;;;;;41.72;8.25;;;;;;;6.38;100.00;102388.25;5091846;27;20070;-73
2024/01/23 09:27:03;;;;;;;41.92;7.72;;;;;;;6.43;100.00;102399.63;5097671;27;20122;-73
2024/01/23 09:29:30;;;;;;;43.15;9.48;;;;;;;6.45;100.00;102399.56;5080573;27;20036;-73
2024/01/23 09:31:56;;;;;;;41.55;8.75;;;;;;;6.44;100.00;102405.78;5074061;28;20156;-73
2024/01/23 09:34:22;;;;;;;36.90;6.65;;;;;;;6.49;100.00;102401.25;5093814;27;20824;-72
2024/01/23 09:36:47;;;;;;;45.78;7.78;;;;;;;6.49;100.00;102395.97;5074669;28;20890;-73
2024/01/23 09:39:13;;;;;;;38.80;7.53;;;;;;;6.55;100.00;102400.25;5059340;28;20409;-73
2024/01/23 09:41:49;;;;;;;38.00;7.00;;;;;;;6.63;100.00;102406.28;5097099;27;20739;-73
2024/01/23 09:44:16;;;;;;;50.47;8.68;;;;;;;6.64;100.00;102403.59;5092630;27;20029;-74
2024/01/23 09:46:43;;;;;;;33.65;6.38;;;;;;;6.62;100.00;102413.31;5092819;27;20033;-73
2024/01/23 09:49:09;;;;;;;29.58;7.28;;;;;;;6.71;100.00;102399.88;5091092;27;20071;-72
2024/01/23 09:51:37;;;;;;;40.75;7.68;;;;;;;6.76;100.00;102399.78;5076917;27;20040;-73
2024/01/23 09:54:03;;;;;;;38.47;8.18;;;;;;;6.83;100.00;102406.69;5075683;27;20040;-73
2024/01/23 09:56:32;;;;;;;36.65;6.65;;;;;;;6.85;100.00;102411.97;5097860;27;20027;-73
2024/01/23 09:58:58;;;;;;;40.65;7.00;;;;;;;6.91;100.00;102394.13;5097829;27;20091;-73
2024/01/23 10:01:24;;;;;;;35.97;7.88;;;;;;;7.02;100.00;102415.09;5094715;27;20042;-73
2024/01/23 10:03:55;;;;;;;43.17;8.80;;;;;;;7.01;100.00;102423.97;5080409;27;20039;-73
2024/01/23 10:06:21;;;;;;;42.50;9.38;;;;;;;7.13;100.00;102418.38;5083226;27;20048;-73
2024/01/23 10:08:46;;;;;;;40.42;7.30;;;;;;;7.13;100.00;102431.66;5076024;27;20918;-73
2024/01/23 10:11:12;;;;;;;42.95;8.68;;;;;;;7.20;100.00;102429.72;5075749;27;20066;-74
2024/01/23 10:13:43;;;;;;;48.80;7.57;;;;;;;7.25;100.00;102415.44;5070538;27;20033;-73
2024/01/23 10:16:09;;;;;;;42.58;7.75;;;;;;;7.32;100.00;102424.09;5076113;27;20121;-73
2024/01/23 10:18:35;;;;;;;44.38;7.45;;;;;;;7.40;100.00;102422.13;5089083;27;20035;-73
2024/01/23 10:21:00;;;;;;;38.90;8.35;;;;;;;7.39;100.00;102423.06;5079974;27;20036;-73
2024/01/23 10:23:29;;;;;;;44.15;7.75;;;;;;;7.50;100.00;102430.75;5072232;28;20028;-73
2024/01/23 10:25:58;;;;;;;37.10;8.52;;;;;;;7.38;100.00;102426.63;5088240;27;20036;-72
2024/01/23 10:28:24;;;;;;;29.15;6.88;;;;;;;7.36;100.00;102425.78;5072220;27;20031;-73
2024/01/23 10:30:50;;;;;;;50.33;9.27;;;;;;;7.40;100.00;102424.78;5074106;27;20036;-73
2024/01/23 10:33:16;;;;;;;48.13;9.63;;;;;;;7.51;100.00;102417.44;5096733;27;20081;-73
2024/01/23 10:35:42;;;;;;;36.67;8.05;;;;;;;7.55;100.00;102407.63;5073289;27;20105;-73
2024/01/23 10:38:16;;;;;;;50.38;9.40;;;;;;;7.62;100.00;102411.84;5076804;27;20055;-73
2024/01/23 10:40:42;;;;;;;41.03;9.57;;;;;;;7.62;100.00;102403.00;5073598;27;20067;-73
2024/01/23 10:43:08;;;;;;;40.08;9.35;;;;;;;7.63;100.00;102400.34;5092925;27;20143;-73
2024/01/23 10:45:36;;;;;;;48.67;8.95;;;;;;;7.69;100.00;102396.66;5094660;27;20120;-73
2024/01/23 10:48:06;;;;;;;45.15;9.13;;;;;;;7.61;100.00;102398.63;5089462;27;20020;-73
2024/01/23 10:50:33;;;;;;;36.55;7.50;;;;;;;7.70;100.00;102396.59;5081669;27;20063;-73
2024/01/23 10:53:05;;;;;;;40.83;8.48;;;;;;;7.67;100.00;102411.72;5088184;27;20450;-73
2024/01/23 10:55:32;;;;;;;47.50;7.78;;;;;;;7.61;100.00;102394.19;5091863;27;21127;-73
2024/01/23 10:58:03;;;;;;;39.22;7.03;;;;;;;7.73;100.00;102396.53;5093511;27;20131;-73
2024/01/23 11:00:32;;;;;;;38.13;7.95;;;;;;;7.64;100.00;102412.69;5090509;27;20039;-73
2024/01/23 11:02:59;;;;;;;42.80;8.07;;;;;;;7.53;100.00;102409.44;5089112;27;20807;-73
2024/01/23 11:05:30;;;;;;;35.53;7.13;;;;;;;7.57;100.00;102407.56;5086912;27;20043;-73
2024/01/23 11:08:00;;;;;;;36.05;7.68;;;;;;;7.63;100.00;102410.97;5090234;27;20644;-73
2024/01/23 11:10:57;;;;;;;47.17;7.72;;;;;;;7.80;100.00;102397.22;5092235;27;20165;-73
2024/01/23 11:13:38;;;;;;;42.72;9.30;;;;;;;7.83;100.00;102393.59;5065328;27;20044;-73